createdAt,value
2019-04-26T16:48:09.281Z,987.26
2019-04-26T16:49:13.531Z,987.26
2019-04-26T16:50:09.623Z,987.27
2019-04-26T16:51:09.793Z,987.31
2019-04-26T16:52:09.962Z,987.30
2019-04-26T16:53:36.346Z,987.25
2019-04-26T16:54:11.138Z,987.27
2019-04-26T16:56:10.650Z,987.26
2019-04-26T16:57:12.176Z,987.26
2019-04-26T16:58:12.641Z,987.24
2019-04-26T16:59:14.305Z,987.26
2019-04-26T17:00:15.789Z,987.29
2019-04-26T17:00:45.469Z,987.27
2019-04-26T17:01:12.403Z,987.23
2019-04-26T17:02:13.334Z,987.23
2019-04-26T17:03:11.869Z,987.20
2019-04-26T17:04:14.173Z,987.14
2019-04-26T17:05:23.748Z,987.17
2019-04-26T17:06:14.315Z,987.15
2019-04-26T17:07:13.400Z,987.15
2019-04-26T17:08:13.019Z,987.23
2019-04-26T17:09:14.432Z,987.21
2019-04-26T17:10:16.465Z,987.20
2019-04-26T17:11:14.042Z,987.20
2019-04-26T17:12:14.887Z,987.22
2019-04-26T17:13:13.569Z,987.21
2019-04-26T17:14:13.748Z,987.24
2019-04-26T17:15:17.514Z,987.26
2019-04-26T17:16:14.091Z,987.28
2019-04-26T17:17:14.369Z,987.31
2019-04-26T17:18:14.439Z,987.30
2019-04-26T17:19:14.610Z,987.29
2019-04-26T17:20:14.787Z,987.26
2019-04-26T17:21:17.592Z,987.28
2019-04-26T17:22:15.966Z,987.30
2019-04-26T17:23:15.296Z,987.30
2019-04-26T17:24:15.466Z,987.24
2019-04-26T17:25:17.020Z,987.20
2019-04-26T17:26:15.812Z,987.17
2019-04-26T17:27:15.982Z,987.14
2019-04-26T17:28:17.989Z,987.11
2019-04-26T17:29:16.327Z,987.10
2019-04-26T17:30:16.498Z,987.10
2019-04-26T17:31:16.670Z,987.09
2019-04-26T17:32:17.452Z,987.10
2019-04-26T17:33:17.012Z,987.10
2019-04-26T17:34:17.183Z,987.13
2019-04-26T17:35:17.355Z,987.18
2019-04-26T17:36:17.531Z,987.22
2019-04-26T17:37:21.653Z,987.25
2019-04-26T17:38:17.873Z,987.32
2019-04-26T17:39:18.494Z,987.36
2019-04-26T17:40:18.212Z,987.39
2019-04-26T17:41:18.384Z,987.38
2019-04-26T17:42:18.556Z,987.34
2019-04-26T17:43:18.729Z,987.37
2019-04-26T17:44:20.671Z,987.33
2019-04-26T17:45:19.073Z,987.31
2019-04-26T17:46:20.003Z,987.29
2019-04-26T17:47:20.268Z,987.35
2019-04-26T17:48:21.090Z,987.34
2019-04-26T17:49:21.371Z,987.31
2019-04-26T17:50:20.581Z,987.28
2019-04-26T17:51:22.885Z,987.22
2019-04-26T17:52:20.439Z,987.21
2019-04-26T17:53:28.833Z,987.17
2019-04-26T17:54:41.105Z,987.15
2019-04-26T17:55:20.839Z,987.03
2019-04-26T17:56:21.502Z,987.02
2019-04-26T17:57:33.648Z,987.04
2019-04-26T17:58:27.494Z,987.04
2019-04-26T17:59:33.554Z,987.02
2019-04-26T18:00:27.408Z,986.97
2019-04-26T18:01:42.180Z,986.99
2019-04-26T18:02:40.726Z,986.98
2019-04-26T18:03:22.191Z,986.95
2019-04-26T18:04:32.291Z,986.98
2019-04-26T18:05:24.435Z,986.98
2019-04-26T18:06:29.435Z,986.98
2019-04-26T18:07:40.321Z,986.98
2019-04-26T18:08:35.852Z,987.01
2019-04-26T18:09:39.076Z,987.03
2019-04-26T18:10:23.350Z,987.05
2019-04-26T18:11:25.017Z,987.12
2019-04-26T18:12:23.654Z,987.18
2019-04-26T18:13:23.826Z,987.20
2019-04-26T18:14:29.629Z,987.23
2019-04-26T18:15:24.207Z,987.27
2019-04-26T18:16:29.232Z,987.27
2019-04-26T18:17:24.956Z,987.26
2019-04-26T18:18:24.687Z,987.30
2019-04-26T18:19:30.423Z,987.35
2019-04-26T18:20:25.021Z,987.35
2019-04-26T18:21:25.188Z,987.38
2019-04-26T18:22:28.397Z,987.44
2019-04-26T18:23:25.531Z,987.39
2019-04-26T18:24:27.682Z,987.47
2019-04-26T18:25:25.886Z,987.48
2019-04-26T18:26:26.045Z,987.47
2019-04-26T18:27:29.880Z,987.50
2019-04-26T18:28:26.392Z,987.43
2019-04-26T18:29:29.413Z,987.40
2019-04-26T18:30:26.737Z,987.37
2019-04-26T18:31:28.624Z,987.34
2019-04-26T18:32:27.083Z,987.30
2019-04-26T18:33:27.257Z,987.29
2019-04-26T18:34:30.544Z,987.30
2019-04-26T18:35:27.586Z,987.29
2019-04-26T18:36:31.862Z,987.39
2019-04-26T18:37:27.927Z,987.42
2019-04-26T18:38:28.093Z,987.54
2019-04-26T18:39:29.709Z,987.61
2019-04-26T18:40:28.436Z,987.66
2019-04-26T18:41:29.045Z,987.70
2019-04-26T18:42:28.779Z,987.72
2019-04-26T18:43:28.952Z,987.76
2019-04-26T18:44:36.910Z,987.81
2019-04-26T18:45:30.174Z,987.77
2019-04-26T18:46:31.771Z,987.79
2019-04-26T18:47:29.637Z,987.76
2019-04-26T18:48:35.282Z,987.73
2019-04-26T18:49:29.979Z,987.72
2019-04-26T18:50:32.839Z,987.75
2019-04-26T18:51:30.326Z,987.73
2019-04-26T18:52:30.506Z,987.72
2019-04-26T18:53:34.498Z,987.69
2019-04-26T18:54:30.836Z,987.72
2019-04-26T18:55:31.012Z,987.73
2019-04-26T18:56:33.714Z,987.83
2019-04-26T18:57:31.356Z,987.84
2019-04-26T18:58:34.729Z,987.88
2019-04-26T18:59:31.704Z,987.82
2019-04-26T19:00:33.599Z,987.82
2019-04-26T19:01:34.670Z,987.77
2019-04-26T19:02:33.330Z,987.71
2019-04-26T19:03:33.777Z,987.70
2019-04-26T19:04:33.574Z,987.68
2019-04-26T19:05:33.809Z,987.68
2019-04-26T19:06:37.681Z,987.70
2019-04-26T19:07:33.077Z,987.67
2019-04-26T19:08:45.010Z,987.69
2019-04-26T19:09:55.919Z,987.69
2019-04-26T19:10:34.357Z,987.72
2019-04-26T19:11:35.646Z,987.72
2019-04-26T19:12:33.953Z,987.76
2019-04-26T19:13:36.580Z,987.74
2019-04-26T19:14:34.267Z,987.83
2019-04-26T19:15:40.370Z,987.83
2019-04-26T19:16:34.618Z,987.80
2019-04-26T19:17:34.786Z,987.83
2019-04-26T19:18:37.912Z,987.80
2019-04-26T19:19:35.130Z,987.83
2019-04-26T19:20:35.294Z,987.84
2019-04-26T19:21:39.002Z,987.85
2019-04-26T19:22:35.638Z,987.84
2019-04-26T19:23:35.810Z,987.90
2019-04-26T19:24:38.576Z,987.88
2019-04-26T19:25:40.926Z,987.92
2019-04-26T19:26:36.317Z,987.91
2019-04-26T19:27:47.281Z,987.90
2019-04-26T19:28:39.932Z,987.89
2019-04-26T19:29:36.825Z,987.92
2019-04-26T19:30:39.872Z,987.96
2019-04-26T19:31:37.169Z,987.92
2019-04-26T19:32:39.655Z,987.95
2019-04-26T19:33:37.511Z,987.94
2019-04-26T19:34:37.686Z,988.03
2019-04-26T19:35:39.385Z,988.05
2019-04-26T19:36:38.024Z,988.00
2019-04-26T19:37:38.207Z,987.99
2019-04-26T19:38:38.369Z,988.00
2019-04-26T19:39:38.563Z,987.99
2019-04-26T19:40:39.399Z,987.99
2019-04-26T19:41:38.894Z,988.05
2019-04-26T19:42:39.064Z,988.06
2019-04-26T19:43:42.963Z,988.06
2019-04-26T19:44:39.409Z,988.04
2019-04-26T19:45:45.577Z,988.10
2019-04-26T19:46:42.139Z,988.00
2019-04-26T19:47:42.284Z,988.03
2019-04-26T19:48:41.793Z,987.96
2019-04-26T19:49:40.268Z,987.98
2019-04-26T19:50:48.510Z,987.97
2019-04-26T19:51:41.472Z,987.97
2019-04-26T19:52:42.893Z,987.98
2019-04-26T19:53:42.351Z,988.01
2019-04-26T19:54:41.787Z,988.02
2019-04-26T19:55:46.940Z,988.04
2019-04-26T19:56:41.840Z,988.03
2019-04-26T19:57:42.616Z,987.94
2019-04-26T19:58:42.202Z,987.92
2019-04-26T19:59:42.325Z,987.93
2019-04-26T20:00:43.478Z,987.98
2019-04-26T20:01:43.731Z,987.94
2019-04-26T20:02:42.495Z,988.02
2019-04-26T20:03:43.178Z,988.00
2019-04-26T20:04:42.848Z,988.03
2019-04-26T20:05:44.162Z,988.01
2019-04-26T20:06:43.192Z,988.05
2019-04-26T20:07:43.362Z,988.06
2019-04-26T20:08:45.942Z,988.06
2019-04-26T20:09:43.715Z,988.02
2019-04-26T20:10:45.887Z,988.06
2019-04-26T20:11:46.914Z,988.02
2019-04-26T20:12:44.229Z,987.97
2019-04-26T20:13:46.955Z,987.95
2019-04-26T20:14:49.230Z,987.89
2019-04-26T20:15:44.742Z,987.87
2019-04-26T20:16:44.914Z,987.83
2019-04-26T20:17:45.131Z,987.83
2019-04-26T20:18:45.258Z,987.83
2019-04-26T20:19:47.749Z,987.82
2019-04-26T20:20:45.601Z,987.78
2019-04-26T20:21:49.622Z,987.78
2019-04-26T20:22:45.947Z,987.81
2019-04-26T20:23:47.542Z,987.83
2019-04-26T20:24:48.733Z,987.94
2019-04-26T20:25:46.458Z,987.98
2019-04-26T20:26:48.641Z,988.01
2019-04-26T20:27:46.791Z,987.99
2019-04-26T20:28:46.960Z,988.03
2019-04-26T20:29:47.861Z,988.03
2019-04-26T20:30:47.300Z,987.96
2019-04-26T20:31:47.857Z,987.98
2019-04-26T20:32:47.643Z,987.95
2019-04-26T20:33:47.928Z,987.92
2019-04-26T20:34:49.373Z,987.87
2019-04-26T20:35:48.133Z,987.90
2019-04-26T20:36:48.314Z,987.88
2019-04-26T20:37:48.490Z,987.88
2019-04-26T20:38:48.664Z,987.84
2019-04-26T20:39:55.832Z,987.86
2019-04-26T20:40:49.085Z,987.81
2019-04-26T20:42:00.543Z,987.76
2019-04-26T20:42:49.301Z,987.77
2019-04-26T20:44:04.468Z,987.76
2019-04-26T20:44:51.920Z,987.78
2019-04-26T20:46:10.107Z,987.77
2019-04-26T20:46:51.843Z,987.73
2019-04-26T20:47:51.968Z,987.70
2019-04-26T20:48:51.899Z,987.74
2019-04-26T20:50:00.628Z,987.74
2019-04-26T20:50:52.043Z,987.72
2019-04-26T20:51:51.871Z,987.71
2019-04-26T20:52:55.588Z,987.70
2019-04-26T20:53:51.199Z,987.69
2019-04-26T20:54:54.019Z,987.72
2019-04-26T20:55:52.783Z,987.71
2019-04-26T20:56:55.389Z,987.77
2019-04-26T20:57:52.000Z,987.76
2019-04-26T20:58:52.389Z,987.76
2019-04-26T20:59:59.869Z,987.77
